M I D A S
Marine Information and Data Acquisition System
Tripno 337 of the Zeeleeuw from 2002-09-18 06:45:45 to 2002-09-18 13:57:39
Back to CruiseResearch ActivitiesStationsMapUnderway DataData graphs

EquipmentUnitsComments
TimeDGPSUTC
LatitudeDGPSDM.mWGS84
LongitudeDGPSDM.mWGS84
SpeedMeteo Stationm/sRelative wind speed
DirectionMeteo StationdegRelative wind direction
TemperatureMeteo Stationdeg CelciusAir temperature
PressureMeteo StationPaAtmospheric pressure
HumidityMeteo Station%Relative humidity
Missing or incorrect values are displayed as -999
Metereological data collected by the RV Zeeleeuw from 2002-09-18 06:45:45 to 2002-09-18 13:57:39
                                                                                    Next 1000 lines
Time Latitude Longitude Speed Direction Temperature Pressure Humidity
2002-09-18 06:45:55 51°13.767 2°55.661 0.9 120 15.1 101680 80
2002-09-18 06:46:00 51°13.769 2°55.66 0.8 122 15.1 101680 80
2002-09-18 06:46:05 51°13.771 2°55.658 0.7 131 15.1 101680 80
2002-09-18 06:46:10 51°13.773 2°55.656 0.4 131 15.1 101680 80
2002-09-18 06:46:14 51°13.775 2°55.655 0.3 131 15.1 101680 80
2002-09-18 06:46:20 51°13.777 2°55.653 0.2 140 15.1 101680 80
2002-09-18 06:46:25 51°13.78 2°55.65 0.1 150 15.1 101680 80
2002-09-18 06:46:30 51°13.783 2°55.649 0.6 153 15.1 101680 80
2002-09-18 06:46:34 51°13.785 2°55.647 0.7 147 15.1 101680 80
2002-09-18 06:46:40 51°13.788 2°55.645 0.6 138 15.1 101680 80
2002-09-18 06:46:45 51°13.791 2°55.643 0.4 153 15.1 101680 80
2002-09-18 06:46:50 51°13.794 2°55.641 0.4 191 15.1 101680 80
2002-09-18 06:46:54 51°13.797 2°55.639 0.3 229 15.1 101680 80
2002-09-18 06:47:00 51°13.8 2°55.637 0.1 229 15.2 101680 80
2002-09-18 06:47:05 51°13.803 2°55.634 0.3 221 15.2 101680 80
2002-09-18 06:47:09 51°13.806 2°55.632 0.5 224 15.2 101680 80
2002-09-18 06:47:14 51°13.809 2°55.63 0.6 226 15.2 101680 80
2002-09-18 06:47:20 51°13.813 2°55.627 0.7 226 15.2 101680 80
2002-09-18 06:47:25 51°13.817 2°55.624 0.9 211 15.2 101680 80
2002-09-18 06:47:30 51°13.821 2°55.622 0.9 197 15.2 101680 80
2002-09-18 06:47:34 51°13.824 2°55.62 1 179 15.2 101680 80
2002-09-18 06:47:40 51°13.828 2°55.616 1.1 156 15.2 101680 80
2002-09-18 06:47:45 51°13.833 2°55.614 0.9 190 15.2 101680 80
2002-09-18 06:47:50 51°13.838 2°55.611 0.9 177 15.2 101680 80
2002-09-18 06:47:54 51°13.842 2°55.609 1 177 15.2 101680 80
2002-09-18 06:48:00 51°13.848 2°55.605 0.9 178 15.2 101680 80
2002-09-18 06:48:05 51°13.853 2°55.601 0.9 189 15.2 101680 80
2002-09-18 06:48:09 51°13.857 2°55.598 1 196 15.2 101680 80
2002-09-18 06:48:15 51°13.863 2°55.594 1 181 15.2 101680 80
2002-09-18 06:48:20 51°13.869 2°55.59 0.9 184 15.2 101680 80
2002-09-18 06:48:25 51°13.875 2°55.587 1.2 199 15.2 101680 80
2002-09-18 06:48:30 51°13.882 2°55.582 1.2 206 15.2 101680 80
2002-09-18 06:48:34 51°13.887 2°55.579 1.6 217 15.2 101680 80
2002-09-18 06:48:40 51°13.896 2°55.573 2 223 15.2 101680 79
2002-09-18 06:48:45 51°13.903 2°55.569 2.6 224 15.2 101680 79
2002-09-18 06:48:49 51°13.909 2°55.565 2.6 220 15.1 101680 79
2002-09-18 06:48:55 51°13.918 2°55.56 2.4 217 15.1 101680 79
2002-09-18 06:48:59 51°13.925 2°55.556 2.7 223 15.1 101680 79
2002-09-18 06:49:05 51°13.935 2°55.551 2.9 218 15.1 101680 79
2002-09-18 06:49:10 51°13.943 2°55.546 3.1 215 15.1 101680 79
2002-09-18 06:49:14 51°13.95 2°55.542 3.2 206 15.1 101680 79
2002-09-18 06:49:20 51°13.96 2°55.537 2.9 202 15.1 101680 80
2002-09-18 06:49:25 51°13.969 2°55.532 2.7 213 15.1 101680 80
2002-09-18 06:49:30 51°13.978 2°55.526 1.9 209 15.1 101680 80
2002-09-18 06:49:34 51°13.985 2°55.522 1.7 214 15.1 101680 80
2002-09-18 06:49:40 51°13.996 2°55.516 2.2 218 15.2 101680 80
2002-09-18 06:49:45 51°14.005 2°55.51 2.3 220 15.2 101680 80
2002-09-18 06:49:50 51°14.014 2°55.505 2.8 211 15.1 101680 80
2002-09-18 06:49:54 51°14.021 2°55.5 2.5 208 15.1 101680 80
2002-09-18 06:50:00 51°14.032 2°55.494 2.7 204 15.2 101680 80
2002-09-18 06:50:05 51°14.041 2°55.488 3.4 217 15.2 101680 80
2002-09-18 06:50:10 51°14.05 2°55.482 3 213 15.2 101680 80
2002-09-18 06:50:14 51°14.058 2°55.478 2.8 209 15.2 101680 80
2002-09-18 06:50:18 51°14.065 2°55.472 2.1 190 15.2 101680 79
2002-09-18 06:50:25 51°14.078 2°55.463 2.4 206 15.2 101680 79
2002-09-18 06:50:30 51°14.086 2°55.456 2.4 222 15.2 101680 79
2002-09-18 06:50:33 51°14.092 2°55.452 2.9 210 15.2 101680 79
2002-09-18 06:50:41 51°14.106 2°55.442 2.5 208 15.2 101680 79
2002-09-18 06:50:45 51°14.114 2°55.437 1.9 218 15.2 101680 79
2002-09-18 06:50:50 51°14.123 2°55.431 2.4 221 15.1 101680 79
2002-09-18 06:50:54 51°14.13 2°55.425 2.3 218 15.1 101680 79
2002-09-18 06:51:00 51°14.141 2°55.416 2.3 225 15.2 101680 79
2002-09-18 06:51:05 51°14.15 2°55.408 2.7 222 15.2 101680 79
2002-09-18 06:51:10 51°14.159 2°55.4 2.1 215 15.1 101680 79
2002-09-18 06:51:15 51°14.168 2°55.391 2.6 220 15.1 101680 79
2002-09-18 06:51:20 51°14.176 2°55.382 2.5 217 15.1 101680 79
2002-09-18 06:51:25 51°14.184 2°55.372 2.5 222 15.1 101680 79
2002-09-18 06:51:30 51°14.192 2°55.362 2.6 218 15.1 101690 79
2002-09-18 06:51:34 51°14.199 2°55.354 2.5 214 15.1 101690 79
2002-09-18 06:51:40 51°14.208 2°55.341 2.4 214 15.2 101680 79
2002-09-18 06:51:45 51°14.216 2°55.33 2.2 220 15.2 101680 79
2002-09-18 06:51:50 51°14.223 2°55.319 2.1 222 15.2 101680 79
2002-09-18 06:51:53 51°14.228 2°55.312 2.4 221 15.2 101680 79
2002-09-18 06:52:00 51°14.238 2°55.296 2.3 216 15.2 101680 79
2002-09-18 06:52:05 51°14.245 2°55.284 2.5 218 15.2 101680 79
2002-09-18 06:52:09 51°14.25 2°55.275 2.3 212 15.2 101680 79
2002-09-18 06:52:14 51°14.257 2°55.263 2.2 216 15.2 101680 79
2002-09-18 06:52:20 51°14.265 2°55.248 2 212 15.2 101680 79
2002-09-18 06:52:25 51°14.272 2°55.236 2 221 15.2 101680 79
2002-09-18 06:52:29 51°14.277 2°55.226 1.7 229 15.2 101680 79
2002-09-18 06:52:34 51°14.284 2°55.213 1.3 234 15.2 101680 79
2002-09-18 06:52:40 51°14.292 2°55.198 2 216 15.2 101680 79
2002-09-18 06:52:45 51°14.299 2°55.185 2.8 221 15.2 101680 79
2002-09-18 06:52:50 51°14.306 2°55.171 2.6 219 15.2 101680 79
2002-09-18 06:52:55 51°14.313 2°55.157 2.8 224 15.2 101680 79
2002-09-18 06:52:59 51°14.319 2°55.145 2.8 232 15.2 101680 79
2002-09-18 06:53:05 51°14.327 2°55.126 3.1 225 15.2 101680 79
2002-09-18 06:53:09 51°14.333 2°55.113 3.1 227 15.2 101680 79
2002-09-18 06:53:15 51°14.342 2°55.094 2.9 230 15.2 101680 79
2002-09-18 06:53:18 51°14.346 2°55.084 2.7 227 15.1 101680 79
2002-09-18 06:53:25 51°14.356 2°55.062 3.2 231 15.1 101680 79
2002-09-18 06:53:29 51°14.362 2°55.049 2.8 231 15.1 101680 79
2002-09-18 06:53:35 51°14.372 2°55.029 2.6 237 15.1 101680 79
2002-09-18 06:53:40 51°14.379 2°55.011 2.9 232 15.1 101680 79
2002-09-18 06:53:45 51°14.387 2°54.992 2.8 231 15.1 101680 79
2002-09-18 06:53:50 51°14.394 2°54.973 3.5 238 15.2 101680 79
2002-09-18 06:53:54 51°14.4 2°54.957 3 236 15.2 101680 79
2002-09-18 06:53:58 51°14.404 2°54.94 3.6 235 15.2 101680 79
2002-09-18 06:54:05 51°14.413 2°54.91 3.9 241 15.2 101680 79
2002-09-18 06:54:10 51°14.419 2°54.888 3.7 234 15.1 101680 79
2002-09-18 06:54:14 51°14.424 2°54.87 3.8 238 15.1 101680 79
2002-09-18 06:54:20 51°14.431 2°54.843 4.1 238 15.1 101680 79
2002-09-18 06:54:25 51°14.437 2°54.82 4 236 15.1 101680 79
2002-09-18 06:54:30 51°14.443 2°54.797 4.1 239 15.1 101680 79
2002-09-18 06:54:34 51°14.449 2°54.779 4.5 238 15.1 101680 79
2002-09-18 06:54:40 51°14.458 2°54.753 4.2 240 15.1 101680 79
2002-09-18 06:54:45 51°14.467 2°54.733 4.7 226 15.1 101680 79
2002-09-18 06:54:50 51°14.476 2°54.713 4.2 228 15.1 101680 79
2002-09-18 06:54:54 51°14.484 2°54.697 3.6 232 15.1 101680 79
2002-09-18 06:54:58 51°14.492 2°54.682 3.6 230 15.1 101680 79
2002-09-18 06:55:05 51°14.506 2°54.655 4.3 229 15.1 101680 79
2002-09-18 06:55:10 51°14.516 2°54.636 4.8 229 15.2 101680 79
2002-09-18 06:55:14 51°14.525 2°54.622 4.1 228 15.2 101680 79
2002-09-18 06:55:20 51°14.539 2°54.601 3.9 215 15.2 101670 79
2002-09-18 06:55:25 51°14.551 2°54.584 4.6 221 15.2 101670 79
2002-09-18 06:55:30 51°14.563 2°54.567 4.8 224 15.2 101690 79
2002-09-18 06:55:34 51°14.573 2°54.554 4.6 216 15.2 101690 79
2002-09-18 06:55:40 51°14.59 2°54.537 4.8 219 15.1 101670 79
2002-09-18 06:55:45 51°14.604 2°54.525 4.3 221 15.1 101670 79
2002-09-18 06:55:50 51°14.619 2°54.515 5.9 218 15.2 101690 79
2002-09-18 06:55:53 51°14.628 2°54.51 5.5 211 15.2 101690 79
2002-09-18 06:56:00 51°14.651 2°54.499 5.7 206 15.1 101680 79
2002-09-18 06:56:05 51°14.667 2°54.493 5.6 211 15.1 101680 79
2002-09-18 06:56:10 51°14.683 2°54.488 5.3 208 15.1 101680 79
2002-09-18 06:56:15 51°14.699 2°54.484 5.6 217 15.1 101680 79
2002-09-18 06:56:20 51°14.716 2°54.48 5.4 212 15.2 101680 79
2002-09-18 06:56:25 51°14.732 2°54.476 5.2 213 15.2 101680 79
2002-09-18 06:56:29 51°14.745 2°54.473 5.6 213 15.1 101680 79
2002-09-18 06:56:34 51°14.762 2°54.469 5 212 15.1 101680 79
2002-09-18 06:56:40 51°14.782 2°54.465 5.4 217 15.2 101680 79
2002-09-18 06:56:45 51°14.798 2°54.461 2.6 206 15.2 101680 79
2002-09-18 06:56:49 51°14.811 2°54.458 5.2 212 15.2 101680 79
2002-09-18 06:56:53 51°14.824 2°54.455 5.6 217 15.2 101680 79
2002-09-18 06:57:00 51°14.847 2°54.448 5 218 15.2 101680 79
2002-09-18 06:57:05 51°14.864 2°54.444 5.9 217 15.2 101680 79
2002-09-18 06:57:10 51°14.88 2°54.439 5.3 215 15.2 101680 79
2002-09-18 06:57:15 51°14.896 2°54.433 5.4 215 15.2 101680 79
2002-09-18 06:57:20 51°14.913 2°54.428 5.6 217 15.2 101680 79
2002-09-18 06:57:25 51°14.929 2°54.423 5.5 213 15.2 101680 79
2002-09-18 06:57:30 51°14.945 2°54.417 5.7 212 15.2 101680 79
2002-09-18 06:57:34 51°14.958 2°54.412 4.9 210 15.2 101680 79
2002-09-18 06:57:40 51°14.977 2°54.404 5.2 213 15.3 101690 80
2002-09-18 06:57:45 51°14.993 2°54.397 5.2 208 15.3 101690 80
2002-09-18 06:57:50 51°15.009 2°54.391 4.9 208 15.3 101680 79
2002-09-18 06:57:54 51°15.022 2°54.387 5.7 208 15.3 101680 79
2002-09-18 06:58:00 51°15.042 2°54.383 6.6 213 15.2 101680 79
2002-09-18 06:58:05 51°15.058 2°54.383 5.2 210 15.2 101680 79
2002-09-18 06:58:10 51°15.074 2°54.384 5.1 210 15.3 101680 79
2002-09-18 06:58:14 51°15.086 2°54.385 5.2 209 15.3 101680 79
2002-09-18 06:58:20 51°15.105 2°54.386 5.1 215 15.3 101690 79
2002-09-18 06:58:25 51°15.122 2°54.388 6.4 220 15.3 101690 79
2002-09-18 06:58:29 51°15.134 2°54.389 6.6 213 15.3 101670 79
2002-09-18 06:58:34 51°15.15 2°54.39 6.2 219 15.3 101670 79
2002-09-18 06:58:40 51°15.17 2°54.392 6.5 220 15.3 101680 79
2002-09-18 06:58:45 51°15.186 2°54.396 7.2 216 15.3 101680 79
2002-09-18 06:58:50 51°15.201 2°54.4 6.5 218 15.3 101680 79
2002-09-18 06:58:55 51°15.217 2°54.407 6.1 215 15.3 101680 79
2002-09-18 06:58:59 51°15.229 2°54.412 6.4 213 15.3 101680 79
2002-09-18 06:59:05 51°15.248 2°54.42 6.2 219 15.3 101680 79
2002-09-18 06:59:10 51°15.263 2°54.426 6.7 213 15.3 101690 79
2002-09-18 06:59:14 51°15.276 2°54.432 6 219 15.3 101690 79
2002-09-18 06:59:20 51°15.294 2°54.439 6.1 217 15.3 101680 79
2002-09-18 06:59:25 51°15.309 2°54.446 6.5 223 15.3 101680 79
2002-09-18 06:59:30 51°15.324 2°54.455 6.7 221 15.3 101690 79
2002-09-18 06:59:33 51°15.333 2°54.461 5.9 221 15.3 101690 79
2002-09-18 06:59:40 51°15.353 2°54.476 6.1 219 15.3 101690 79
2002-09-18 06:59:45 51°15.366 2°54.488 6.7 216 15.3 101690 79
2002-09-18 06:59:49 51°15.377 2°54.498 6.4 221 15.3 101680 79
2002-09-18 06:59:54 51°15.39 2°54.513 6.6 220 15.3 101680 79
2002-09-18 07:00:00 51°15.405 2°54.531 3.3 213 15.3 101680 79
2002-09-18 07:00:05 51°15.417 2°54.546 7.3 215 15.3 101680 79
2002-09-18 07:00:10 51°15.429 2°54.561 7 213 15.4 101680 79
2002-09-18 07:00:14 51°15.439 2°54.574 7.9 220 15.4 101680 79
2002-09-18 07:00:20 51°15.454 2°54.592 8.6 218 15.4 101680 79
2002-09-18 07:00:24 51°15.464 2°54.604 8 214 15.4 101680 79
2002-09-18 07:00:29 51°15.477 2°54.618 7.7 207 15.4 101690 79
2002-09-18 07:00:35 51°15.493 2°54.635 7.1 216 15.4 101690 79
2002-09-18 07:00:40 51°15.506 2°54.648 7.5 219 15.4 101690 79
2002-09-18 07:00:45 51°15.52 2°54.662 7.5 217 15.4 101690 79
2002-09-18 07:00:49 51°15.53 2°54.674 7.9 217 15.4 101690 79
2002-09-18 07:00:55 51°15.544 2°54.694 8 216 15.4 101690 79
2002-09-18 07:01:00 51°15.555 2°54.711 8.6 218 15.4 101680 78
2002-09-18 07:01:05 51°15.565 2°54.731 7.6 218 15.4 101680 78
2002-09-18 07:01:10 51°15.574 2°54.751 8 217 15.4 101680 78
2002-09-18 07:01:13 51°15.58 2°54.763 8.3 218 15.4 101680 78
2002-09-18 07:01:20 51°15.593 2°54.791 7.6 216 15.4 101680 78
2002-09-18 07:01:25 51°15.602 2°54.811 8.1 220 15.4 101680 78
2002-09-18 07:01:30 51°15.612 2°54.831 7.8 216 15.4 101690 78
2002-09-18 07:01:35 51°15.623 2°54.85 7.4 215 15.4 101690 78
2002-09-18 07:01:40 51°15.632 2°54.871 8.6 220 15.4 101680 78
2002-09-18 07:01:42 51°15.637 2°54.879 8.8 218 15.4 101680 78
2002-09-18 07:01:50 51°15.653 2°54.912 8.3 222 15.4 101680 78
2002-09-18 07:01:55 51°15.664 2°54.933 8.7 220 15.4 101680 78
2002-09-18 07:02:00 51°15.674 2°54.954 8.8 217 15.5 101690 79
2002-09-18 07:02:09 51°15.693 2°54.993 9.6 219 15.5 101670 79
2002-09-18 07:02:13 51°15.701 2°55.01 9.2 220 15.5 101670 79
2002-09-18 07:02:18 51°15.712 2°55.032 9.5 219 15.5 101680 78
2002-09-18 07:02:21 51°15.718 2°55.045 9.1 216 15.5 101680 78
2002-09-18 07:02:29 51°15.735 2°55.08 9.3 221 15.5 101690 78
2002-09-18 07:02:34 51°15.746 2°55.102 8.6 219 15.5 101690 78
2002-09-18 07:02:39 51°15.757 2°55.124 9.5 222 15.5 101680 78
2002-09-18 07:02:44 51°15.768 2°55.147 9.5 223 15.5 101680 78
2002-09-18 07:02:49 51°15.779 2°55.169 11.1 223 15.5 101690 78
2002-09-18 07:02:53 51°15.788 2°55.187 10.4 222 15.5 101690 78
2002-09-18 07:02:59 51°15.801 2°55.214 10.2 217 15.5 101680 78
2002-09-18 07:03:04 51°15.811 2°55.237 9.6 219 15.5 101680 78
2002-09-18 07:03:09 51°15.822 2°55.26 10.4 219 15.5 101680 78
2002-09-18 07:03:13 51°15.83 2°55.278 9.6 215 15.5 101680 78
2002-09-18 07:03:19 51°15.843 2°55.305 10.1 223 15.5 101670 78
2002-09-18 07:03:25 51°15.856 2°55.333 10.1 224 15.5 101670 78
2002-09-18 07:03:29 51°15.864 2°55.351 9.9 222 15.5 101680 78
2002-09-18 07:03:32 51°15.871 2°55.365 9.5 220 15.5 101680 78
2002-09-18 07:03:39 51°15.886 2°55.397 10.1 217 15.5 101680 78
2002-09-18 07:03:44 51°15.897 2°55.42 10.6 216 15.5 101680 78
2002-09-18 07:03:49 51°15.907 2°55.443 11.5 217 15.5 101680 78
2002-09-18 07:03:53 51°15.916 2°55.461 10.7 217 15.5 101680 78
2002-09-18 07:03:57 51°15.925 2°55.48 10 218 15.5 101670 78
2002-09-18 07:04:04 51°15.94 2°55.511 10.7 220 15.5 101670 78
2002-09-18 07:04:09 51°15.951 2°55.534 10.5 218 15.5 101680 78
2002-09-18 07:04:13 51°15.96 2°55.553 10.6 223 15.5 101680 78
2002-09-18 07:04:19 51°15.972 2°55.581 10.4 216 15.5 101670 77
2002-09-18 07:04:23 51°15.981 2°55.599 10.3 218 15.5 101670 77
2002-09-18 07:04:29 51°15.992 2°55.628 10.9 221 15.5 101670 78
2002-09-18 07:04:33 51°16.001 2°55.647 10.6 222 15.5 101670 78
2002-09-18 07:04:39 51°16.013 2°55.677 11.2 221 15.5 101670 77
2002-09-18 07:04:44 51°16.023 2°55.7 10.5 217 15.5 101670 77
2002-09-18 07:04:49 51°16.032 2°55.725 10.6 221 15.5 101680 78
2002-09-18 07:04:54 51°16.042 2°55.749 11.3 220 15.5 101680 78
2002-09-18 07:04:58 51°16.05 2°55.769 10.5 221 15.5 101670 78
2002-09-18 07:05:02 51°16.058 2°55.788 10.3 218 15.5 101670 78
2002-09-18 07:05:09 51°16.071 2°55.822 10.9 221 15.5 101680 78
2002-09-18 07:05:13 51°16.079 2°55.841 10.9 221 15.5 101680 78
2002-09-18 07:05:18 51°16.089 2°55.866 10.3 219 15.5 101670 78
2002-09-18 07:05:22 51°16.097 2°55.885 10.5 220 15.5 101670 78
2002-09-18 07:05:29 51°16.111 2°55.919 10.2 227 15.5 101680 78
2002-09-18 07:05:33 51°16.119 2°55.938 10.4 219 15.5 101680 78
2002-09-18 07:05:38 51°16.128 2°55.964 10.8 221 15.6 101680 78
2002-09-18 07:05:44 51°16.141 2°55.992 10.2 222 15.6 101680 78
2002-09-18 07:05:49 51°16.151 2°56.016 10.4 220 15.6 101670 78
2002-09-18 07:05:54 51°16.161 2°56.039 10.5 221 15.6 101670 78
2002-09-18 07:05:58 51°16.17 2°56.059 10.7 220 15.6 101680 78
2002-09-18 07:06:04 51°16.182 2°56.088 10.5 224 15.6 101680 78
2002-09-18 07:06:09 51°16.191 2°56.112 10.4 222 15.6 101660 78
2002-09-18 07:06:14 51°16.201 2°56.137 11.4 224 15.6 101660 78
2002-09-18 07:06:19 51°16.211 2°56.16 11.7 221 15.6 101660 78
2002-09-18 07:06:22 51°16.217 2°56.175 11.4 218 15.6 101660 78
2002-09-18 07:06:29 51°16.231 2°56.21 11.2 222 15.6 101680 78
2002-09-18 07:06:34 51°16.241 2°56.234 10.5 220 15.6 101680 78
2002-09-18 07:06:39 51°16.251 2°56.258 10.5 219 15.6 101680 78
2002-09-18 07:06:44 51°16.262 2°56.281 10.2 220 15.6 101680 78
2002-09-18 07:06:48 51°16.27 2°56.301 10.6 223 15.6 101670 78
2002-09-18 07:06:53 51°16.28 2°56.325 11.9 221 15.6 101670 78
2002-09-18 07:06:59 51°16.293 2°56.354 11.3 227 15.6 101670 78
2002-09-18 07:07:04 51°16.303 2°56.378 11.4 224 15.6 101670 78
2002-09-18 07:07:09 51°16.313 2°56.402 11.2 224 15.6 101660 78
2002-09-18 07:07:13 51°16.321 2°56.421 11.6 222 15.6 101660 78
2002-09-18 07:07:19 51°16.333 2°56.451 11.2 223 15.6 101670 78
2002-09-18 07:07:22 51°16.339 2°56.465 9.6 223 15.6 101670 78
2002-09-18 07:07:29 51°16.353 2°56.5 11.4 222 15.5 101670 77
2002-09-18 07:07:33 51°16.361 2°56.519 10.5 217 15.5 101670 77
2002-09-18 07:07:38 51°16.37 2°56.544 10.7 219 15.5 101670 77
2002-09-18 07:07:44 51°16.382 2°56.573 10.4 221 15.5 101670 77
2002-09-18 07:07:49 51°16.392 2°56.598 10.6 222 15.6 101670 78
2002-09-18 07:07:53 51°16.4 2°56.618 10.9 222 15.6 101670 78
2002-09-18 07:07:58 51°16.41 2°56.642 10.6 225 15.6 101680 78
2002-09-18 07:08:02 51°16.417 2°56.662 11.5 225 15.6 101680 78
2002-09-18 07:08:09 51°16.43 2°56.697 11 224 15.6 101680 78
2002-09-18 07:08:13 51°16.438 2°56.717 11.4 223 15.6 101680 78
2002-09-18 07:08:18 51°16.448 2°56.742 11.2 225 15.6 101670 78
2002-09-18 07:08:23 51°16.458 2°56.766 11.9 224 15.6 101670 78
2002-09-18 07:08:29 51°16.47 2°56.795 10.6 224 15.6 101670 78
2002-09-18 07:08:33 51°16.478 2°56.815 11.1 225 15.6 101670 78
2002-09-18 07:08:39 51°16.49 2°56.844 12.1 223 15.6 101670 78
2002-09-18 07:08:42 51°16.496 2°56.859 12.2 223 15.6 101670 78
2002-09-18 07:08:49 51°16.509 2°56.892 11.3 228 15.6 101680 78
2002-09-18 07:08:54 51°16.519 2°56.916 11.3 219 15.6 101680 78
2002-09-18 07:08:58 51°16.527 2°56.936 11.6 224 15.6 101670 78
2002-09-18 07:09:02 51°16.535 2°56.955 11.4 225 15.6 101670 78
2002-09-18 07:09:09 51°16.548 2°56.99 11.6 221 15.6 101660 78
2002-09-18 07:09:13 51°16.555 2°57.01 10.9 222 15.6 101660 78
2002-09-18 07:09:18 51°16.564 2°57.035 10.4 221 15.6 101670 78
2002-09-18 07:09:23 51°16.573 2°57.06 10.5 227 15.6 101670 78
2002-09-18 07:09:29 51°16.584 2°57.09 10.7 224 15.6 101670 77
2002-09-18 07:09:34 51°16.593 2°57.115 10.7 135 15.6 101670 77
2002-09-18 07:09:39 51°16.601 2°57.14 10.1 224 15.6 101670 78
2002-09-18 07:09:42 51°16.607 2°57.155 11 221 15.6 101670 78
2002-09-18 07:09:49 51°16.619 2°57.19 11.1 223 15.6 101670 78
2002-09-18 07:09:53 51°16.626 2°57.21 10.8 221 15.6 101670 78
2002-09-18 07:09:59 51°16.637 2°57.24 9.9 224 15.7 101670 78
2002-09-18 07:10:02 51°16.643 2°57.255 11.3 219 15.7 101670 78
2002-09-18 07:10:09 51°16.656 2°57.29 10.7 220 15.7 101670 78
2002-09-18 07:10:13 51°16.663 2°57.31 10.1 221 15.7 101670 78
2002-09-18 07:10:19 51°16.674 2°57.339 9.8 219 15.6 101680 78
2002-09-18 07:10:23 51°16.681 2°57.36 10.6 221 15.6 101680 78
2002-09-18 07:10:29 51°16.692 2°57.39 10.9 223 15.7 101670 78
2002-09-18 07:10:33 51°16.7 2°57.41 10.2 226 15.7 101670 78
2002-09-18 07:10:39 51°16.711 2°57.44 11.1 225 15.6 101680 78
2002-09-18 07:10:44 51°16.72 2°57.465 12.5 223 15.6 101680 78
2002-09-18 07:10:49 51°16.729 2°57.489 12.6 221 15.6 101670 78
2002-09-18 07:10:54 51°16.739 2°57.515 12.5 223 15.6 101670 78
2002-09-18 07:10:58 51°16.746 2°57.534 10.9 218 15.7 101670 78
2002-09-18 07:11:02 51°16.754 2°57.554 10.5 134 15.7 101670 78
2002-09-18 07:11:09 51°16.767 2°57.589 10.6 222 15.6 101670 78
2002-09-18 07:11:14 51°16.776 2°57.614 11.6 219 15.6 101670 78
2002-09-18 07:11:18 51°16.784 2°57.634 10.6 224 15.6 101670 78
2002-09-18 07:11:23 51°16.793 2°57.659 11.1 221 15.6 101670 78
2002-09-18 07:11:29 51°16.804 2°57.69 10.7 223 15.6 101680 78
2002-09-18 07:11:33 51°16.811 2°57.711 11.2 220 15.6 101680 78
2002-09-18 07:11:38 51°16.82 2°57.737 11.1 224 15.7 101670 78
2002-09-18 07:11:42 51°16.827 2°57.757 10.8 221 15.7 101670 78
2002-09-18 07:11:49 51°16.839 2°57.793 10.8 224 15.7 101680 78
2002-09-18 07:11:53 51°16.846 2°57.813 11.4 225 15.7 101680 78
2002-09-18 07:11:58 51°16.855 2°57.839 11.6 221 15.7 101680 78
2002-09-18 07:12:02 51°16.862 2°57.859 11.3 315 15.7 101680 78
2002-09-18 07:12:09 51°16.874 2°57.895 11 223 15.7 101680 78
2002-09-18 07:12:14 51°16.882 2°57.921 10.8 221 15.7 101680 78
2002-09-18 07:12:19 51°16.891 2°57.946 11.1 221 15.7 101670 78
2002-09-18 07:12:23 51°16.899 2°57.966 11 223 15.7 101670 78
2002-09-18 07:12:29 51°16.909 2°57.996 11.6 218 15.7 101680 78
2002-09-18 07:12:34 51°16.918 2°58.022 11 225 15.7 101680 78
2002-09-18 07:12:38 51°16.926 2°58.041 12.4 223 15.7 101670 78
2002-09-18 07:12:42 51°16.933 2°58.061 10.8 223 15.7 101670 78
2002-09-18 07:12:49 51°16.947 2°58.096 11.7 221 15.7 101670 78
2002-09-18 07:12:53 51°16.954 2°58.116 11.6 224 15.7 101670 78
2002-09-18 07:12:59 51°16.966 2°58.146 11 224 15.7 101680 79
2002-09-18 07:13:04 51°16.975 2°58.171 11.5 227 15.7 101680 79
2002-09-18 07:13:08 51°16.982 2°58.191 11.8 227 15.7 101680 78
2002-09-18 07:13:13 51°16.991 2°58.217 11.4 221 15.7 101680 78
2002-09-18 07:13:18 51°17 2°58.242 11 223 15.7 101670 78
2002-09-18 07:13:22 51°17.007 2°58.262 10.9 227 15.7 101670 78
2002-09-18 07:13:29 51°17.02 2°58.297 11.7 223 15.7 101660 78
2002-09-18 07:13:34 51°17.029 2°58.322 11.1 223 15.7 101660 78
2002-09-18 07:13:39 51°17.038 2°58.347 11.5 222 15.7 101670 78
2002-09-18 07:13:44 51°17.047 2°58.372 11.6 222 15.7 101670 78
2002-09-18 07:13:48 51°17.054 2°58.392 11.8 223 15.7 101670 78
2002-09-18 07:13:54 51°17.065 2°58.422 11.8 220 15.7 101670 78
2002-09-18 07:13:59 51°17.075 2°58.446 11.7 225 15.7 101680 78
2002-09-18 07:14:02 51°17.081 2°58.461 11.5 220 15.7 101680 78
2002-09-18 07:14:09 51°17.094 2°58.495 11.5 223 15.7 101670 78
2002-09-18 07:14:13 51°17.101 2°58.515 11.4 220 15.7 101670 78
2002-09-18 07:14:18 51°17.11 2°58.539 10.8 223 15.7 101690 78
2002-09-18 07:14:24 51°17.122 2°58.569 11 219 15.7 101690 78
2002-09-18 07:14:29 51°17.132 2°58.593 10.7 221 15.7 101680 78
2002-09-18 07:14:33 51°17.139 2°58.613 10.3 224 15.7 101680 78
2002-09-18 07:14:38 51°17.148 2°58.637 10.7 224 15.7 101670 78
2002-09-18 07:14:42 51°17.156 2°58.656 10.5 223 15.7 101670 78
2002-09-18 07:14:49 51°17.169 2°58.691 11.1 222 15.6 101680 78
2002-09-18 07:14:53 51°17.177 2°58.71 10.7 224 15.6 101680 78
2002-09-18 07:14:59 51°17.188 2°58.739 10.3 224 15.6 101680 78
2002-09-18 07:15:04 51°17.197 2°58.764 11 223 15.6 101680 78
2002-09-18 07:15:09 51°17.206 2°58.788 10.7 220 15.7 101670 78
2002-09-18 07:15:14 51°17.215 2°58.813 11.2 224 15.7 101670 78
2002-09-18 07:15:17 51°17.221 2°58.828 11.1 220 15.6 101670 78
2002-09-18 07:15:21 51°17.228 2°58.848 11.7 222 15.6 101670 78
2002-09-18 07:15:29 51°17.243 2°58.887 10.9 223 15.6 101680 78
2002-09-18 07:15:33 51°17.25 2°58.907 11.8 225 15.6 101680 78
2002-09-18 07:15:37 51°17.258 2°58.926 11.1 226 15.6 101680 78
2002-09-18 07:15:42 51°17.266 2°58.951 11.9 223 15.6 101680 78
2002-09-18 07:15:49 51°17.279 2°58.986 11.4 222 15.6 101670 78
2002-09-18 07:15:54 51°17.289 2°59.01 10.2 221 15.6 101670 78
2002-09-18 07:15:59 51°17.298 2°59.035 10.5 226 15.6 101670 78
2002-09-18 07:16:04 51°17.308 2°59.059 11.4 222 15.6 101670 78
2002-09-18 07:16:09 51°17.317 2°59.084 10.1 223 15.6 101680 78
2002-09-18 07:16:13 51°17.325 2°59.103 11.3 225 15.6 101680 78
2002-09-18 07:16:18 51°17.334 2°59.128 11.1 225 15.6 101670 78
2002-09-18 07:16:22 51°17.342 2°59.148 11.6 224 15.6 101670 78
2002-09-18 07:16:29 51°17.355 2°59.182 10.7 222 15.6 101680 78
2002-09-18 07:16:32 51°17.361 2°59.197 10.2 226 15.6 101680 78
2002-09-18 07:16:37 51°17.37 2°59.221 11.2 227 15.6 101680 78
2002-09-18 07:16:43 51°17.381 2°59.251 10.2 229 15.6 101680 78
2002-09-18 07:16:49 51°17.391 2°59.282 10.8 222 15.6 101670 78
2002-09-18 07:16:53 51°17.398 2°59.302 10.8 224 15.6 101670 78
2002-09-18 07:16:59 51°17.409 2°59.332 11.3 224 15.6 101680 78
2002-09-18 07:17:03 51°17.416 2°59.352 11.9 226 15.6 101680 78
2002-09-18 07:17:09 51°17.426 2°59.382 10.5 224 15.6 101660 78
2002-09-18 07:17:13 51°17.434 2°59.402 11.3 229 15.6 101660 78
2002-09-18 07:17:19 51°17.444 2°59.433 11 227 15.6 101680 78
2002-09-18 07:17:24 51°17.453 2°59.458 10.2 221 15.6 101680 78
2002-09-18 07:17:29 51°17.461 2°59.484 10.2 222 15.6 101670 78
2002-09-18 07:17:33 51°17.469 2°59.504 10.9 224 15.6 101670 78
2002-09-18 07:17:39 51°17.48 2°59.534 11.6 226 15.6 101680 78
2002-09-18 07:17:42 51°17.485 2°59.549 10.8 225 15.6 101680 78
2002-09-18 07:17:48 51°17.496 2°59.579 10.4 223 15.6 101680 78
2002-09-18 07:17:53 51°17.507 2°59.603 10.8 224 15.6 101680 78
2002-09-18 07:17:59 51°17.518 2°59.631 10.8 222 15.6 101680 78
2002-09-18 07:18:03 51°17.526 2°59.651 10.5 221 15.6 101680 78
2002-09-18 07:18:09 51°17.537 2°59.68 9.4 225 15.6 101670 78
2002-09-18 07:18:12 51°17.543 2°59.695 10.5 225 15.6 101670 78
2002-09-18 07:18:19 51°17.557 2°59.729 10.6 222 15.6 101680 77
2002-09-18 07:18:23 51°17.565 2°59.748 10.4 221 15.6 101680 77
2002-09-18 07:18:29 51°17.576 2°59.777 10.8 219 15.6 101670 77
2002-09-18 07:18:33 51°17.584 2°59.797 10.5 224 15.6 101670 77
2002-09-18 07:18:37 51°17.591 2°59.816 9.8 225 15.6 101670 77
2002-09-18 07:18:42 51°17.601 2°59.841 10.6 225 15.6 101670 77
2002-09-18 07:18:49 51°17.615 2°59.874 10.7 224 15.6 101670 77
2002-09-18 07:18:53 51°17.622 2°59.894 10.4 315 15.6 101670 77
2002-09-18 07:18:58 51°17.632 2°59.918 11.3 225 15.6 101680 77
2002-09-18 07:19:02 51°17.639 2°59.938 11.5 226 15.6 101680 77
2002-09-18 07:19:09 51°17.653 2°59.971 10.7 224 15.6 101670 77
2002-09-18 07:19:13 51°17.661 2°59.991 10.4 225 15.6 101670 77
2002-09-18 07:19:18 51°17.67 3°0.015 10.4 224 15.6 101680 77
2002-09-18 07:19:22 51°17.678 3°0.035 9.8 224 15.6 101680 77
2002-09-18 07:19:29 51°17.691 3°0.068 10.3 226 15.6 101680 77
2002-09-18 07:19:34 51°17.701 3°0.092 10.4 225 15.6 101680 77
2002-09-18 07:19:39 51°17.71 3°0.116 9.5 225 15.6 101690 77
2002-09-18 07:19:41 51°17.714 3°0.126 10 222 15.6 101690 77
2002-09-18 07:19:49 51°17.73 3°0.164 9.7 224 15.6 101680 77
2002-09-18 07:19:53 51°17.737 3°0.183 9.8 226 15.6 101680 77
2002-09-18 07:19:59 51°17.749 3°0.212 10.2 223 15.6 101680 77
2002-09-18 07:20:02 51°17.755 3°0.226 9.9 226 15.6 101680 77
2002-09-18 07:20:09 51°17.769 3°0.26 10.2 225 15.6 101690 77
2002-09-18 07:20:14 51°17.779 3°0.284 10.1 224 15.6 101690 77
2002-09-18 07:20:18 51°17.786 3°0.303 10.6 225 15.6 101690 77
2002-09-18 07:20:22 51°17.794 3°0.322 10.3 224 15.6 101690 77
2002-09-18 07:20:29 51°17.807 3°0.356 9.6 224 15.7 101670 77
2002-09-18 07:20:33 51°17.814 3°0.375 10.5 224 15.7 101670 77
2002-09-18 07:20:39 51°17.825 3°0.404 9.7 225 15.6 101680 77
2002-09-18 07:20:44 51°17.834 3°0.429 9.7 222 15.6 101680 77
2002-09-18 07:20:49 51°17.843 3°0.454 10.1 226 15.7 101680 78
2002-09-18 07:20:54 51°17.852 3°0.478 9.5 225 15.7 101680 78
2002-09-18 07:20:58 51°17.86 3°0.498 9.9 225 15.7 101680 78
2002-09-18 07:21:01 51°17.865 3°0.512 10.5 228 15.7 101680 78
2002-09-18 07:21:09 51°17.88 3°0.551 10.2 224 15.7 101680 77
2002-09-18 07:21:13 51°17.888 3°0.57 9.7 227 15.7 101680 77
2002-09-18 07:21:18 51°17.898 3°0.594 10.6 226 15.6 101690 77
2002-09-18 07:21:21 51°17.903 3°0.609 9.8 230 15.6 101690 77
2002-09-18 07:21:29 51°17.919 3°0.647 10.4 227 15.7 101680 77
2002-09-18 07:21:34 51°17.928 3°0.671 9.7 229 15.7 101680 77
2002-09-18 07:21:39 51°17.938 3°0.694 9.7 226 15.7 101680 77
2002-09-18 07:21:44 51°17.948 3°0.718 9.9 229 15.7 101680 77
2002-09-18 07:21:48 51°17.955 3°0.737 9.8 229 15.6 101670 77
2002-09-18 07:21:54 51°17.967 3°0.766 10 230 15.6 101670 77
2002-09-18 07:21:59 51°17.976 3°0.79 9.9 226 15.7 101670 77
2002-09-18 07:22:03 51°17.983 3°0.81 10.1 227 15.7 101670 77
2002-09-18 07:22:09 51°17.995 3°0.838 9.7 228 15.7 101680 77
2002-09-18 07:22:13 51°18.002 3°0.858 9.9 226 15.7 101680 77
2002-09-18 07:22:18 51°18.011 3°0.882 9.5 226 15.7 101670 77
2002-09-18 07:22:22 51°18.018 3°0.901 9.4 226 15.7 101670 77
2002-09-18 07:22:29 51°18.031 3°0.935 10.2 225 15.6 101690 77
2002-09-18 07:22:33 51°18.038 3°0.954 9.6 224 15.6 101690 77
2002-09-18 07:22:39 51°18.049 3°0.983 9.2 226 15.6 101680 77
2002-09-18 07:22:44 51°18.059 3°1.006 9.5 224 15.6 101680 77
2002-09-18 07:22:49 51°18.068 3°1.03 10.2 226 15.6 101680 77
2002-09-18 07:22:53 51°18.076 3°1.049 9.5 224 15.6 101680 77
2002-09-18 07:22:58 51°18.086 3°1.073 9.9 226 15.6 101690 77
2002-09-18 07:23:03 51°18.096 3°1.096 9.8 222 15.6 101690 77
2002-09-18 07:23:09 51°18.107 3°1.125 9 226 15.6 101690 77
2002-09-18 07:23:13 51°18.115 3°1.143 9 225 15.6 101690 77
2002-09-18 07:23:19 51°18.127 3°1.172 8.3 225 15.6 101690 77
2002-09-18 07:23:24 51°18.136 3°1.195 9.2 225 15.6 101690 77
2002-09-18 07:23:29 51°18.146 3°1.219 9.4 229 15.6 101690 77
2002-09-18 07:23:32 51°18.152 3°1.233 9.7 229 15.6 101690 77
2002-09-18 07:23:39 51°18.165 3°1.267 10.1 225 15.6 101690 77
2002-09-18 07:23:44 51°18.173 3°1.292 9.8 226 15.6 101690 77
2002-09-18 07:23:49 51°18.182 3°1.317 9.5 225 15.6 101690 77
2002-09-18 07:23:53 51°18.189 3°1.337 9.8 222 15.6 101690 77
2002-09-18 07:23:56 51°18.194 3°1.351 8.6 224 15.6 101680 76
2002-09-18 07:24:02 51°18.205 3°1.38 9.1 221 15.6 101680 76
2002-09-18 07:24:09 51°18.218 3°1.414 9.1 222 15.6 101680 76
2002-09-18 07:24:13 51°18.225 3°1.434 8.7 226 15.6 101680 76
2002-09-18 07:24:18 51°18.235 3°1.457 9.7 225 15.6 101690 76
2002-09-18 07:24:22 51°18.242 3°1.476 9.7 223 15.6 101690 76
2002-09-18 07:24:29 51°18.255 3°1.509 8.6 223 15.6 101690 77
2002-09-18 07:24:33 51°18.264 3°1.528 9 221 15.6 101690 77
2002-09-18 07:24:37 51°18.271 3°1.547 8.5 225 15.6 101690 76
2002-09-18 07:24:41 51°18.279 3°1.566 8.9 223 15.6 101690 76
2002-09-18 07:24:48 51°18.293 3°1.598 8.3 231 15.6 101680 76
2002-09-18 07:24:53 51°18.303 3°1.622 9 227 15.6 101680 76
2002-09-18 07:24:59 51°18.314 3°1.651 8.1 223 15.6 101680 76
2002-09-18 07:25:04 51°18.323 3°1.675 8.2 228 15.6 101680 76
2002-09-18 07:25:09 51°18.332 3°1.699 8.9 230 15.6 101680 76
2002-09-18 07:25:14 51°18.342 3°1.723 8.8 226 15.6 101680 76
2002-09-18 07:25:18 51°18.349 3°1.742 8.7 225 15.6 101680 76
2002-09-18 07:25:22 51°18.356 3°1.761 8.7 229 15.6 101680 76
2002-09-18 07:25:28 51°18.367 3°1.79 8.2 231 15.6 101700 77
2002-09-18 07:25:33 51°18.377 3°1.814 8.4 227 15.6 101700 77
2002-09-18 07:25:39 51°18.388 3°1.843 8.5 227 15.7 101680 77
2002-09-18 07:25:41 51°18.392 3°1.852 8.6 229 15.7 101680 77
2002-09-18 07:25:49 51°18.407 3°1.891 8.9 229 15.6 101680 77
2002-09-18 07:25:54 51°18.416 3°1.914 9 234 15.6 101680 77
2002-09-18 07:25:57 51°18.422 3°1.928 8.6 230 15.6 101690 77
2002-09-18 07:26:04 51°18.436 3°1.961 8.6 227 15.6 101690 77
2002-09-18 07:26:09 51°18.445 3°1.985 9.4 229 15.7 101690 77
2002-09-18 07:26:13 51°18.453 3°2.004 8.6 226 15.7 101690 77
2002-09-18 07:26:18 51°18.463 3°2.028 8.7 227 15.6 101680 77
2002-09-18 07:26:24 51°18.475 3°2.056 8.9 225 15.6 101680 77
2002-09-18 07:26:29 51°18.484 3°2.079 8.3 229 15.6 101690 77
2002-09-18 07:26:33 51°18.492 3°2.098 9.2 227 15.6 101690 77
2002-09-18 07:26:38 51°18.501 3°2.122 8.6 224 15.7 101690 77
2002-09-18 07:26:42 51°18.509 3°2.141 8.9 226 15.7 101690 77
2002-09-18 07:26:49 51°18.522 3°2.174 8.8 227 15.6 101690 77
2002-09-18 07:26:53 51°18.529 3°2.194 9.3 225 15.6 101690 77
2002-09-18 07:26:58 51°18.538 3°2.218 8.7 222 15.7 101690 77
2002-09-18 07:27:02 51°18.546 3°2.237 8.5 219 15.7 101690 77
2002-09-18 07:27:09 51°18.558 3°2.27 8.5 221 15.7 101690 77
2002-09-18 07:27:13 51°18.566 3°2.289 9.5 225 15.7 101690 77
2002-09-18 07:27:19 51°18.577 3°2.318 9 222 15.7 101680 77
2002-09-18 07:27:22 51°18.582 3°2.333 9.3 223 15.7 101680 77
2002-09-18 07:27:29 51°18.596 3°2.365 8.7 223 15.6 101700 77
2002-09-18 07:27:34 51°18.605 3°2.389 8.7 227 15.6 101700 77
2002-09-18 07:27:38 51°18.613 3°2.408 8.5 224 15.7 101690 77
2002-09-18 07:27:43 51°18.623 3°2.431 9.6 225 15.7 101690 77
2002-09-18 07:27:49 51°18.635 3°2.458 9.4 219 15.6 101680 76
2002-09-18 07:27:53 51°18.642 3°2.477 8.7 220 15.6 101680 76
2002-09-18 07:27:58 51°18.652 3°2.501 9.2 223 15.6 101690 77
2002-09-18 07:28:04 51°18.664 3°2.529 9.8 220 15.6 101690 77
2002-09-18 07:28:09 51°18.674 3°2.552 9.3 224 15.7 101690 77
2002-09-18 07:28:13 51°18.682 3°2.57 8.7 224 15.7 101690 77
2002-09-18 07:28:18 51°18.692 3°2.593 7.9 224 15.6 101690 77
2002-09-18 07:28:22 51°18.7 3°2.611 8.2 223 15.6 101690 77
2002-09-18 07:28:29 51°18.714 3°2.643 8.3 225 15.7 101680 77
2002-09-18 07:28:32 51°18.721 3°2.656 8.6 221 15.7 101680 77
2002-09-18 07:28:39 51°18.735 3°2.689 8.5 222 15.7 101690 77
2002-09-18 07:28:42 51°18.741 3°2.703 8.8 220 15.7 101690 77
2002-09-18 07:28:49 51°18.753 3°2.736 8.7 221 15.7 101690 77
2002-09-18 07:28:53 51°18.761 3°2.756 8.8 216 15.7 101690 77
2002-09-18 07:28:59 51°18.771 3°2.786 8.8 315 15.7 101690 77
2002-09-18 07:29:04 51°18.779 3°2.81 9.8 224 15.7 101690 77
2002-09-18 07:29:09 51°18.788 3°2.835 9.3 223 15.7 101690 77
2002-09-18 07:29:14 51°18.797 3°2.859 9.3 223 15.7 101690 77
2002-09-18 07:29:19 51°18.805 3°2.884 9.2 223 15.7 101690 77
2002-09-18 07:29:22 51°18.811 3°2.898 8.8 223 15.7 101690 77
2002-09-18 07:29:29 51°18.824 3°2.932 8.8 221 15.7 101690 76
2002-09-18 07:29:33 51°18.832 3°2.95 9 221 15.7 101690 76
2002-09-18 07:29:38 51°18.842 3°2.974 8.5 219 15.7 101690 76
2002-09-18 07:29:43 51°18.852 3°2.997 8.3 220 15.7 101690 76
2002-09-18 07:29:49 51°18.864 3°3.024 8.6 218 15.6 101690 76
2002-09-18 07:29:53 51°18.872 3°3.043 8.9 220 15.6 101690 76
2002-09-18 07:29:58 51°18.882 3°3.066 8.6 222 15.6 101690 76
2002-09-18 07:30:03 51°18.892 3°3.09 8.3 217 15.6 101690 76
2002-09-18 07:30:09 51°18.903 3°3.118 8.6 216 15.6 101680 76
2002-09-18 07:30:13 51°18.91 3°3.138 8.6 216 15.6 101680 76
2002-09-18 07:30:18 51°18.919 3°3.162 8.5 219 15.6 101680 76
2002-09-18 07:30:24 51°18.929 3°3.193 8.4 221 15.6 101680 76
2002-09-18 07:30:29 51°18.938 3°3.217 9.2 223 15.6 101680 76
2002-09-18 07:30:33 51°18.945 3°3.237 7.9 225 15.6 101680 76
2002-09-18 07:30:39 51°18.956 3°3.266 8.3 225 15.7 101690 77
2002-09-18 07:30:42 51°18.961 3°3.281 8.2 221 15.7 101690 77
2002-09-18 07:30:49 51°18.974 3°3.315 8.2 223 15.7 101680 77
2002-09-18 07:30:54 51°18.984 3°3.338 8.9 219 15.7 101680 77
2002-09-18 07:30:59 51°18.993 3°3.362 9.7 315 15.7 101680 77
2002-09-18 07:31:03 51°19.002 3°3.38 9.5 221 15.7 101680 77
2002-09-18 07:31:09 51°19.014 3°3.408 9.1 218 15.7 101690 77
2002-09-18 07:31:14 51°19.024 3°3.431 8.7 217 15.7 101690 77
2002-09-18 07:31:19 51°19.034 3°3.455 8.4 218 15.7 101700 77
2002-09-18 07:31:22 51°19.039 3°3.469 9.1 219 15.7 101700 77
2002-09-18 07:31:29 51°19.053 3°3.502 9.7 218 15.7 101680 76
2002-09-18 07:31:34 51°19.062 3°3.526 9 223 15.7 101680 76
2002-09-18 07:31:39 51°19.072 3°3.55 10 223 15.7 101690 76
2002-09-18 07:31:44 51°19.081 3°3.575 9.6 220 15.7 101690 76
2002-09-18 07:31:49 51°19.09 3°3.599 9.4 216 15.7 101680 76
2002-09-18 07:31:54 51°19.099 3°3.623 9.5 218 15.7 101680 76
2002-09-18 07:31:58 51°19.106 3°3.642 9.6 223 15.7 101690 76
2002-09-18 07:32:03 51°19.116 3°3.666 9.2 219 15.7 101690 76
2002-09-18 07:32:09 51°19.127 3°3.695 9 223 15.7 101680 76
2002-09-18 07:32:13 51°19.135 3°3.714 8.9 217 15.7 101680 76
2002-09-18 07:32:18 51°19.145 3°3.737 9.7 222 15.7 101690 76
2002-09-18 07:32:22 51°19.153 3°3.756 9.5 219 15.7 101690 76
2002-09-18 07:32:29 51°19.167 3°3.788 9 224 15.7 101680 76
2002-09-18 07:32:33 51°19.175 3°3.807 9.6 224 15.7 101680 76
2002-09-18 07:32:38 51°19.185 3°3.83 10.3 219 15.7 101690 76
2002-09-18 07:32:42 51°19.193 3°3.849 9.9 218 15.7 101690 76
2002-09-18 07:32:49 51°19.207 3°3.882 10.3 215 15.7 101690 76
2002-09-18 07:32:53 51°19.214 3°3.901 9.6 218 15.7 101690 76
2002-09-18 07:32:58 51°19.224 3°3.925 10.8 219 15.7 101670 76
2002-09-18 07:33:02 51°19.231 3°3.944 10.1 217 15.7 101670 76
2002-09-18 07:33:09 51°19.245 3°3.977 10.3 218 15.7 101680 76
2002-09-18 07:33:13 51°19.252 3°3.996 9.9 214 15.7 101680 76
2002-09-18 07:33:18 51°19.262 3°4.02 9 218 15.7 101680 75
2002-09-18 07:33:22 51°19.269 3°4.039 9.8 217 15.7 101680 75
2002-09-18 07:33:29 51°19.283 3°4.073 10.3 220 15.7 101680 75
2002-09-18 07:33:33 51°19.29 3°4.093 10.6 225 15.7 101680 75
2002-09-18 07:33:38 51°19.3 3°4.116 9.1 220 15.7 101680 75
2002-09-18 07:33:43 51°19.309 3°4.141 9.1 223 15.7 101680 75
2002-09-18 07:33:49 51°19.32 3°4.17 9.6 218 15.8 101690 75
2002-09-18 07:33:53 51°19.328 3°4.189 9.4 216 15.8 101690 75
2002-09-18 07:33:58 51°19.338 3°4.213 10 221 15.7 101670 75
2002-09-18 07:34:04 51°19.349 3°4.241 9.6 215 15.7 101670 75
2002-09-18 07:34:09 51°19.358 3°4.265 9.5 215 15.8 101670 75
2002-09-18 07:34:14 51°19.367 3°4.29 9.8 216 15.8 101670 75
2002-09-18 07:34:19 51°19.377 3°4.314 9.5 219 15.8 101680 75
2002-09-18 07:34:24 51°19.386 3°4.338 10.1 215 15.8 101680 75
2002-09-18 07:34:29 51°19.396 3°4.361 9.3 216 15.8 101680 75
2002-09-18 07:34:33 51°19.403 3°4.38 9.4 214 15.8 101680 75
2002-09-18 07:34:38 51°19.413 3°4.404 9.1 217 15.8 101680 75
2002-09-18 07:34:42 51°19.421 3°4.422 9.6 218 15.8 101680 75
2002-09-18 07:34:49 51°19.436 3°4.455 9.2 221 15.8 101680 76
2002-09-18 07:34:53 51°19.443 3°4.474 9.4 220 15.8 101680 76
2002-09-18 07:34:58 51°19.454 3°4.496 9.1 218 15.8 101680 76
2002-09-18 07:35:02 51°19.462 3°4.515 9.4 221 15.8 101680 76
2002-09-18 07:35:09 51°19.476 3°4.548 10.2 218 15.8 101670 76
2002-09-18 07:35:13 51°19.483 3°4.568 10.5 218 15.8 101670 76
2002-09-18 07:35:18 51°19.493 3°4.591 10.1 213 15.8 101670 75
2002-09-18 07:35:22 51°19.5 3°4.611 9.1 219 15.8 101670 75
2002-09-18 07:35:29 51°19.514 3°4.644 8.9 215 15.8 101680 75
2002-09-18 07:35:32 51°19.52 3°4.658 9.6 218 15.8 101680 75
2002-09-18 07:35:37 51°19.529 3°4.683 10 219 15.8 101680 75
2002-09-18 07:35:42 51°19.538 3°4.707 9.7 219 15.8 101680 75
2002-09-18 07:35:49 51°19.551 3°4.741 10 217 15.8 101680 75
2002-09-18 07:35:53 51°19.558 3°4.761 10.3 217 15.8 101680 75
2002-09-18 07:35:58 51°19.567 3°4.785 9.9 214 15.9 101670 75
2002-09-18 07:36:02 51°19.575 3°4.805 9.7 218 15.9 101670 75
2002-09-18 07:36:09 51°19.589 3°4.838 9.7 218 15.8 101680 76
2002-09-18 07:36:13 51°19.597 3°4.856 10.1 214 15.8 101680 76
2002-09-18 07:36:18 51°19.608 3°4.879 10.4 215 15.8 101680 76
2002-09-18 07:36:24 51°19.621 3°4.906 9.6 206 15.8 101680 76
2002-09-18 07:36:29 51°19.632 3°4.928 8.7 214 15.9 101680 76
2002-09-18 07:36:33 51°19.642 3°4.945 8.8 212 15.9 101680 76
2002-09-18 07:36:39 51°19.655 3°4.971 9.2 213 15.8 101680 75
2002-09-18 07:36:42 51°19.662 3°4.984 9.8 218 15.8 101680 75
2002-09-18 07:36:49 51°19.678 3°5.015 10 215 15.8 101690 75
2002-09-18 07:36:53 51°19.688 3°5.032 9.7 212 15.8 101690 75
2002-09-18 07:36:59 51°19.701 3°5.059 9.2 218 15.8 101680 76
2002-09-18 07:37:03 51°19.71 3°5.077 10.2 217 15.8 101680 76
2002-09-18 07:37:09 51°19.723 3°5.104 9.6 218 15.9 101680 76
2002-09-18 07:37:13 51°19.731 3°5.122 9.8 216 15.9 101680 76
2002-09-18 07:37:18 51°19.742 3°5.145 9 215 15.9 101680 76
2002-09-18 07:37:22 51°19.751 3°5.163 10.1 213 15.9 101680 76
2002-09-18 07:37:29 51°19.766 3°5.195 9.5 212 15.9 101680 76
2002-09-18 07:37:33 51°19.775 3°5.213 9.7 213 15.9 101680 76
2002-09-18 07:37:39 51°19.789 3°5.238 9 213 15.8 101670 76
2002-09-18 07:37:44 51°19.801 3°5.259 9.7 214 15.8 101670 76
2002-09-18 07:37:49 51°19.814 3°5.28 9.5 214 15.9 101680 76
2002-09-18 07:37:53 51°19.824 3°5.296 8.7 212 15.9 101680 76
2002-09-18 07:37:58 51°19.836 3°5.317 8.6 213 15.8 101670 76
2002-09-18 07:38:04 51°19.851 3°5.341 10 216 15.8 101670 76
2002-09-18 07:38:09 51°19.864 3°5.361 9.3 215 15.9 101680 76
2002-09-18 07:38:14 51°19.876 3°5.383 9.6 216 15.9 101680 76
2002-09-18 07:38:18 51°19.886 3°5.4 9 211 15.9 101680 76
2002-09-18 07:38:22 51°19.895 3°5.417 8.9 214 15.9 101680 76
2002-09-18 07:38:29 51°19.911 3°5.447 9.7 218 15.9 101680 76
2002-09-18 07:38:34 51°19.923 3°5.469 9.9 213 15.9 101680 76
2002-09-18 07:38:39 51°19.934 3°5.491 9.5 211 15.9 101670 76
2002-09-18 07:38:44 51°19.946 3°5.513 9.6 216 15.9 101670 76
2002-09-18 07:38:49 51°19.957 3°5.534 10.2 211 15.9 101680 76
2002-09-18 07:38:53 51°19.966 3°5.552 9.2 213 15.9 101680 76
2002-09-18 07:38:59 51°19.98 3°5.579 9 213 15.9 101680 76
2002-09-18 07:39:03 51°19.989 3°5.596 8.6 212 15.9 101680 76
2002-09-18 07:39:08 51°20.001 3°5.617 9.3 212 15.9 101680 76
2002-09-18 07:39:13 51°20.013 3°5.639 10.4 215 15.9 101680 76
2002-09-18 07:39:18 51°20.025 3°5.66 10.1 217 15.9 101680 76
2002-09-18 07:39:23 51°20.037 3°5.68 9.4 211 15.9 101680 76
2002-09-18 07:39:29 51°20.051 3°5.705 9.1 213 15.9 101670 76
2002-09-18 07:39:33 51°20.061 3°5.722 9.4 211 15.9 101670 76
2002-09-18 07:39:37 51°20.071 3°5.739 10.1 211 15.9 101680 76
2002-09-18 07:39:43 51°20.085 3°5.764 9.1 211 15.9 101680 76
2002-09-18 07:39:49 51°20.1 3°5.789 10.7 216 15.9 101670 76
2002-09-18 07:39:53 51°20.11 3°5.805 10.4 215 15.9 101670 76
2002-09-18 07:39:58 51°20.122 3°5.826 9.9 216 15.8 101680 76
2002-09-18 07:40:03 51°20.134 3°5.847 11 215 15.8 101680 76
2002-09-18 07:40:09 51°20.148 3°5.873 9.7 212 15.9 101670 76
2002-09-18 07:40:13 51°20.157 3°5.89 9.7 209 15.9 101670 76
2002-09-18 07:40:18 51°20.169 3°5.911 9.7 213 15.9 101680 75
2002-09-18 07:40:24 51°20.184 3°5.936 10 213 15.9 101680 75
2002-09-18 07:40:29 51°20.196 3°5.957 10.1 209 15.9 101670 75
2002-09-18 07:40:34 51°20.208 3°5.978 9.7 208 15.9 101670 75
2002-09-18 07:40:38 51°20.218 3°5.994 11.1 207 15.8 101670 75
2002-09-18 07:40:43 51°20.231 3°6.014 10 207 15.8 101670 75
2002-09-18 07:40:49 51°20.247 3°6.037 8.9 204 15.9 101680 75
2002-09-18 07:40:53 51°20.257 3°6.051 9.1 202 15.9 101680 75
2002-09-18 07:40:59 51°20.274 3°6.072 8.8 202 15.9 101680 75
2002-09-18 07:41:02 51°20.283 3°6.083 8.9 206 15.9 101680 75
2002-09-18 07:41:09 51°20.303 3°6.107 9.9 205 15.8 101670 75
2002-09-18 07:41:13 51°20.314 3°6.12 9.1 205 15.8 101670 75
2002-09-18 07:41:19 51°20.331 3°6.141 9.8 205 15.8 101690 75
2002-09-18 07:41:22 51°20.339 3°6.151 8.8 210 15.8 101690 75
2002-09-18 07:41:29 51°20.359 3°6.176 8.6 206 15.9 101670 75
2002-09-18 07:41:33 51°20.37 3°6.191 9.2 204 15.9 101670 75
2002-09-18 07:41:38 51°20.383 3°6.209 9.7 209 15.8 101670 74
2002-09-18 07:41:42 51°20.394 3°6.224 10.2 210 15.8 101670 74
2002-09-18 07:41:49 51°20.412 3°6.25 10.6 210 15.9 101690 75
2002-09-18 07:41:53 51°20.423 3°6.265 9.5 205 15.9 101690 75
2002-09-18 07:41:58 51°20.437 3°6.283 8.9 205 15.9 101680 75
2002-09-18 07:42:02 51°20.448 3°6.298 10.2 205 15.9 101680 75
2002-09-18 07:42:09 51°20.467 3°6.323 9.6 208 15.9 101670 75
2002-09-18 07:42:13 51°20.478 3°6.337 9.4 210 15.9 101670 75
2002-09-18 07:42:19 51°20.494 3°6.358 9 204 15.9 101680 75
2002-09-18 07:42:21 51°20.5 3°6.365 8.8 204 15.9 101680 75
2002-09-18 07:42:29 51°20.523 3°6.392 9 204 15.9 101690 74
2002-09-18 07:42:33 51°20.534 3°6.405 9.3 204 15.9 101690 74
2002-09-18 07:42:39 51°20.551 3°6.426 9.5 208 15.9 101670 75
2002-09-18 07:42:43 51°20.562 3°6.439 9.1 208 15.9 101670 75
2002-09-18 07:42:49 51°20.579 3°6.46 8.5 202 15.9 101680 75
2002-09-18 07:42:53 51°20.59 3°6.474 9.4 206 15.9 101680 75
2002-09-18 07:42:57 51°20.601 3°6.488 9.4 208 15.9 101680 75
2002-09-18 07:43:04 51°20.62 3°6.513 9 209 15.9 101680 75
2002-09-18 07:43:08 51°20.631 3°6.527 9.5 204 15.9 101670 75
2002-09-18 07:43:13 51°20.645 3°6.545 9 203 15.9 101670 75
2002-09-18 07:43:19 51°20.661 3°6.567 8.7 206 15.9 101680 75
2002-09-18 07:43:22 51°20.67 3°6.577 8.7 209 15.9 101680 75
2002-09-18 07:43:29 51°20.688 3°6.603 9.7 213 15.9 101670 74
2002-09-18 07:43:33 51°20.699 3°6.618 10.5 210 15.9 101670 74
2002-09-18 07:43:38 51°20.712 3°6.637 9.9 214 15.9 101670 75
2002-09-18 07:43:42 51°20.722 3°6.652 11 210 15.9 101670 75
2002-09-18 07:43:49 51°20.74 3°6.68 10 209 15.9 101680 75
2002-09-18 07:43:53 51°20.751 3°6.695 9.1 207 15.9 101680 75
2002-09-18 07:43:59 51°20.767 3°6.717 10.3 207 15.9 101680 75
2002-09-18 07:44:03 51°20.778 3°6.731 9.7 204 15.9 101680 75
2002-09-18 07:44:09 51°20.795 3°6.751 9.7 204 15.9 101670 75
2002-09-18 07:44:13 51°20.806 3°6.765 9 207 15.9 101670 75
2002-09-18 07:44:18 51°20.82 3°6.782 9.3 204 15.9 101670 75
2002-09-18 07:44:24 51°20.837 3°6.802 9.6 214 15.9 101670 75
2002-09-18 07:44:29 51°20.851 3°6.819 9.4 211 15.9 101680 74
2002-09-18 07:44:34 51°20.865 3°6.836 8.7 210 15.9 101680 74
2002-09-18 07:44:38 51°20.877 3°6.85 9.1 211 15.9 101690 75
2002-09-18 07:44:44 51°20.893 3°6.871 9.9 212 15.9 101690 75
2002-09-18 07:44:49 51°20.907 3°6.888 9.3 210 15.9 101670 75
2002-09-18 07:44:53 51°20.919 3°6.903 8.8 211 15.9 101670 75
2002-09-18 07:44:58 51°20.932 3°6.92 8.6 210 15.9 101680 75
2002-09-18 07:45:04 51°20.949 3°6.942 8.7 213 15.9 101680 75
2002-09-18 07:45:09 51°20.963 3°6.961 9.7 211 15.9 101670 74
2002-09-18 07:45:14 51°20.976 3°6.979 9.4 212 15.9 101670 74
2002-09-18 07:45:18 51°20.987 3°6.995 9.2 212 15.9 101680 74
2002-09-18 07:45:24 51°21.003 3°7.018 10.3 211 15.9 101680 74
2002-09-18 07:45:29 51°21.016 3°7.037 9.9 217 15.9 101680 75
2002-09-18 07:45:33 51°21.026 3°7.053 9.5 211 15.9 101680 75
2002-09-18 07:45:39 51°21.042 3°7.076 9.5 207 15.9 101690 75
2002-09-18 07:45:42 51°21.051 3°7.087 8.9 209 15.9 101690 75
2002-09-18 07:45:49 51°21.07 3°7.113 8.7 206 15.9 101670 75
2002-09-18 07:45:53 51°21.081 3°7.128 8.5 212 15.9 101670 75
2002-09-18 07:45:58 51°21.096 3°7.145 8.7 211 16 101670 75
2002-09-18 07:46:02 51°21.107 3°7.159 9.3 213 16 101670 75
2002-09-18 07:46:09 51°21.127 3°7.184 9.5 215 16 101670 75
2002-09-18 07:46:13 51°21.139 3°7.199 9.7 214 16 101670 75
2002-09-18 07:46:18 51°21.153 3°7.216 9.3 213 16 101690 75
2002-09-18 07:46:24 51°21.17 3°7.238 9.6 212 16 101690 75
2002-09-18 07:46:29 51°21.185 3°7.256 9.3 215 16 101680 75
2002-09-18 07:46:33 51°21.196 3°7.271 10.4 212 16 101680 75
2002-09-18 07:46:38 51°21.211 3°7.289 9.4 211 16 101670 75
2002-09-18 07:46:43 51°21.225 3°7.307 10 212 16 101670 75
2002-09-18 07:46:49 51°21.242 3°7.329 9.4 206 15.9 101690 75
2002-09-18 07:46:53 51°21.253 3°7.344 9.8 210 15.9 101690 75
2002-09-18 07:46:59 51°21.271 3°7.365 10.4 216 15.9 101680 75
2002-09-18 07:47:02 51°21.279 3°7.377 9.6 215 15.9 101680 75
2002-09-18 07:47:09 51°21.3 3°7.402 9.8 213 15.9 101670 75
2002-09-18 07:47:14 51°21.314 3°7.42 10 218 15.9 101670 75
2002-09-18 07:47:18 51°21.326 3°7.435 10 214 16 101680 75
2002-09-18 07:47:22 51°21.338 3°7.449 10 213 16 101680 75
2002-09-18 07:47:29 51°21.358 3°7.475 10.8 210 15.9 101680 75
2002-09-18 07:47:33 51°21.37 3°7.49 10.1 216 15.9 101680 75
2002-09-18 07:47:38 51°21.384 3°7.51 9.7 215 15.9 101670 74
2002-09-18 07:47:44 51°21.401 3°7.533 10.2 217 15.9 101670 74
2002-09-18 07:47:49 51°21.415 3°7.553 10.6 215 15.9 101670 75
2002-09-18 07:47:53 51°21.426 3°7.569 10.4 215 15.9 101670 75
2002-09-18 07:47:59 51°21.442 3°7.593 10.2 214 16 101670 75
2002-09-18 07:48:02 51°21.45 3°7.605 9.3 216 16 101670 75
2002-09-18 07:48:09 51°21.47 3°7.634 10.6 218 15.9 101670 74
2002-09-18 07:48:14 51°21.483 3°7.654 9.4 214 15.9 101670 74
2002-09-18 07:48:18 51°21.494 3°7.671 9.7 218 16 101680 74
2002-09-18 07:48:22 51°21.505 3°7.686 9.5 219 16 101680 74
2002-09-18 07:48:29 51°21.524 3°7.715 9.6 220 16 101690 74
2002-09-18 07:48:33 51°21.536 3°7.731 9.9 216 16 101690 74
2002-09-18 07:48:39 51°21.552 3°7.754 10 215 16 101680 74
2002-09-18 07:48:44 51°21.566 3°7.774 9.5 213 16 101680 74
2002-09-18 07:48:49 51°21.58 3°7.794 9.7 218 16 101670 75
2002-09-18 07:48:53 51°21.591 3°7.81 10.4 218 16 101670 75
2002-09-18 07:48:59 51°21.608 3°7.834 9.1 216 16 101690 75
2002-09-18 07:49:02 51°21.616 3°7.847 10 218 16 101690 75
2002-09-18 07:49:09 51°21.635 3°7.875 10.1 220 16 101680 75
2002-09-18 07:49:13 51°21.646 3°7.891 10.3 215 16 101680 75
2002-09-18 07:49:18 51°21.66 3°7.911 10.1 217 16.1 101680 76
2002-09-18 07:49:21 51°21.669 3°7.923 11.3 216 16.1 101680 76
2002-09-18 07:49:29 51°21.691 3°7.955 10.8 229 16.1 101670 76
2002-09-18 07:49:33 51°21.702 3°7.971 10.2 225 16.1 101670 76
2002-09-18 07:49:39 51°21.719 3°7.995 11.7 229 16.1 101680 76
2002-09-18 07:49:43 51°21.73 3°8.011 11.3 225 16.1 101680 76
2002-09-18 07:49:49 51°21.747 3°8.035 10.3 221 16.1 101660 76
2002-09-18 07:49:53 51°21.758 3°8.051 9.7 217 16.1 101660 76
2002-09-18 07:49:57 51°21.769 3°8.067 11.6 223 16.1 101680 76
2002-09-18 07:50:04 51°21.788 3°8.095 12 222 16.1 101680 76
2002-09-18 07:50:09 51°21.802 3°8.116 10.8 219 16.1 101670 75
2002-09-18 07:50:13 51°21.813 3°8.132 10.3 218 16.1 101670 75
2002-09-18 07:50:19 51°21.829 3°8.157 11.5 218 16.1 101680 75
2002-09-18 07:50:22 51°21.838 3°8.169 10.3 224 16.1 101680 75
2002-09-18 07:50:29 51°21.856 3°8.199 10.7 224 16.1 101670 75
2002-09-18 07:50:33 51°21.866 3°8.217 10.4 224 16.1 101670 75
2002-09-18 07:50:38 51°21.88 3°8.237 11.4 225 16.1 101680 75
2002-09-18 07:50:44 51°21.895 3°8.263 10.7 224 16.1 101680 75
2002-09-18 07:50:49 51°21.909 3°8.285 11.5 223 16.1 101680 75
2002-09-18 07:50:53 51°21.919 3°8.302 11.5 225 16.1 101680 75
2002-09-18 07:50:58 51°21.932 3°8.324 11.4 223 16.1 101680 74
2002-09-18 07:51:03 51°21.945 3°8.345 11.9 224 16.1 101680 74
2002-09-18 07:51:09 51°21.96 3°8.372 11.5 225 16.1 101670 73
2002-09-18 07:51:13 51°21.971 3°8.389 11.5 225 16.1 101670 73
2002-09-18 07:51:17 51°21.981 3°8.406 11.5 225 16.1 101660 73
2002-09-18 07:51:21 51°21.992 3°8.423 12.3 228 16.1 101660 73
2002-09-18 07:51:29 51°22.013 3°8.457 10.8 226 16 101670 72
2002-09-18 07:51:33 51°22.023 3°8.474 12 229 16 101670 72
2002-09-18 07:51:37 51°22.034 3°8.491 11.9 315 16.1 101680 72
2002-09-18 07:51:42 51°22.047 3°8.513 12 225 16.1 101680 72
2002-09-18 07:51:49 51°22.065 3°8.543 10.6 226 16 101670 71
2002-09-18 07:51:54 51°22.078 3°8.564 10.8 224 16 101670 71
2002-09-18 07:51:59 51°22.091 3°8.586 11 226 16.1 101670 71
2002-09-18 07:52:03 51°22.101 3°8.604 11.7 315 16.1 101670 71
2002-09-18 07:52:09 51°22.117 3°8.63 10.9 225 16.1 101680 71
2002-09-18 07:52:13 51°22.127 3°8.647 10.9 225 16.1 101680 71
2002-09-18 07:52:19 51°22.143 3°8.673 11.7 135 16.1 101680 70
2002-09-18 07:52:22 51°22.151 3°8.686 11.2 222 16.1 101680 70
2002-09-18 07:52:29 51°22.169 3°8.717 10.5 225 16.1 101680 71
2002-09-18 07:52:34 51°22.182 3°8.737 11.4 221 16.1 101680 71
2002-09-18 07:52:38 51°22.193 3°8.755 11.1 224 16.1 101660 71
2002-09-18 07:52:44 51°22.209 3°8.78 11.9 224 16.1 101660 71
2002-09-18 07:52:49 51°22.223 3°8.801 10.6 224 16.1 101660 70
2002-09-18 07:52:53 51°22.233 3°8.818 10.7 224 16.1 101660 70
2002-09-18 07:52:59 51°22.25 3°8.844 12.2 224 16.1 101680 70
2002-09-18 07:53:04 51°22.263 3°8.865 12.2 226 16.1 101680 70
2002-09-18 07:53:09 51°22.276 3°8.886 12.1 227 16.2 101670 70
2002-09-18 07:53:12 51°22.285 3°8.899 12.1 228 16.2 101670 70
2002-09-18 07:53:18 51°22.301 3°8.925 11.9 227 16.2 101660 71
2002-09-18 07:53:24 51°22.317 3°8.951 12.2 226 16.2 101660 71
2002-09-18 07:53:29 51°22.329 3°8.973 10.8 226 16.2 101660 70
2002-09-18 07:53:34 51°22.343 3°8.995 11.7 227 16.2 101660 70
2002-09-18 07:53:38 51°22.353 3°9.012 10.6 224 16.2 101660 70
2002-09-18 07:53:43 51°22.366 3°9.034 11.3 223 16.2 101660 70
2002-09-18 07:53:49 51°22.382 3°9.061 10.4 226 16.2 101660 69
2002-09-18 07:53:53 51°22.391 3°9.077 9.9 221 16.2 101660 69
2002-09-18 07:53:58 51°22.403 3°9.097 9.8 225 16.2 101660 69
2002-09-18 07:54:01 51°22.409 3°9.109 9.4 222 16.2 101660 69
2002-09-18 07:54:10 51°22.427 3°9.14 9.3 219 16.2 101680 69
2002-09-18 07:54:15 51°22.437 3°9.156 10.3 214 16.2 101680 69
2002-09-18 07:54:20 51°22.445 3°9.172 9.4 218 16.2 101670 70
2002-09-18 07:54:25 51°22.454 3°9.186 9.3 207 16.2 101670 70
2002-09-18 07:54:30 51°22.462 3°9.2 8.2 210 16.2 101670 70
2002-09-18 07:54:32 51°22.465 3°9.205 8.5 216 16.2 101670 70
2002-09-18 07:54:39 51°22.475 3°9.223 8.7 218 16.2 101690 71
2002-09-18 07:54:45 51°22.483 3°9.237 8.2 213 16.2 101690 71
2002-09-18 07:54:50 51°22.489 3°9.248 8.8 215 16.3 101680 71
2002-09-18 07:54:54 51°22.494 3°9.257 7.3 215 16.3 101680 71
2002-09-18 07:54:59 51°22.5 3°9.267 7.4 218 16.3 101670 71
2002-09-18 07:55:02 51°22.503 3°9.273 7.6 216 16.3 101670 71
2002-09-18 07:55:10 51°22.512 3°9.287 7.6 213 16.3 101670 71
2002-09-18 07:55:13 51°22.515 3°9.293 7.3 213 16.3 101670 71
2002-09-18 07:55:18 51°22.52 3°9.301 6.8 210 16.3 101670 70
2002-09-18 07:55:25 51°22.526 3°9.312 7.1 208 16.3 101670 70
2002-09-18 07:55:29 51°22.53 3°9.318 6.8 208 16.3 101680 70
2002-09-18 07:55:33 51°22.534 3°9.324 7.5 205 16.3 101680 70
2002-09-18 07:55:37 51°22.537 3°9.33 7 208 16.3 101670 70
2002-09-18 07:55:45 51°22.544 3°9.34 7.2 208 16.3 101670 70
2002-09-18 07:55:50 51°22.548 3°9.347 6.9 208 16.3 101670 70
2002-09-18 07:55:53 51°22.551 3°9.35 6.4 208 16.3 101670 70
2002-09-18 07:56:00 51°22.557 3°9.359 7.1 203 16.2 101680 70
2002-09-18 07:56:09 51°22.565 3°9.369 6 198 16.2 101680 69
2002-09-18 07:56:14 51°22.569 3°9.374 6.4 200 16.2 101680 69
2002-09-18 07:56:17 51°22.572 3°9.377 5.9 197 16.2 101670 69
2002-09-18 07:56:22 51°22.576 3°9.383 6.1 202 16.2 101670 69
2002-09-18 07:56:29 51°22.582 3°9.39 6.3 199 16.2 101670 69
2002-09-18 07:56:32 51°22.585 3°9.393 6.7 199 16.2 101670 69
2002-09-18 07:56:38 51°22.59 3°9.398 6.1 200 16.2 101680 69
2002-09-18 07:56:44 51°22.596 3°9.404 5.9 203 16.2 101680 69
2002-09-18 07:56:49 51°22.6 3°9.409 5.8 203 16.2 101680 69
2002-09-18 07:56:53 51°22.604 3°9.412 6.5 200 16.2 101680 69
2002-09-18 07:56:58 51°22.608 3°9.417 6.1 195 16.2 101670 70
2002-09-18 07:57:04 51°22.613 3°9.423 5.6 198 16.2 101670 70
2002-09-18 07:57:09 51°22.618 3°9.427 6.3 196 16.2 101680 69
2002-09-18 07:57:14 51°22.622 3°9.432 5.6 190 16.2 101680 69
2002-09-18 07:57:17 51°22.625 3°9.434 5 192 16.2 101680 70
2002-09-18 07:57:24 51°22.631 3°9.44 5.1 193 16.2 101680 70
2002-09-18 07:57:29 51°22.635 3°9.444 5.4 199 16.2 101680 69
2002-09-18 07:57:33 51°22.638 3°9.447 5.2 204 16.2 101680 69
2002-09-18 07:57:38 51°22.642 3°9.451 5 188 16.2 101680 69
2002-09-18 07:57:44 51°22.646 3°9.455 4.8 196 16.2 101680 69
2002-09-18 07:57:49 51°22.649 3°9.459 5.1 198 16.2 101690 70
2002-09-18 07:57:53 51°22.652 3°9.462 4.5 185 16.2 101690 70
2002-09-18 07:57:58 51°22.655 3°9.465 4.9 181 16.3 101680 71
2002-09-18 07:58:04 51°22.659 3°9.469 4.5 188 16.3 101680 71
2002-09-18 07:58:08 51°22.661 3°9.471 4.9 188 16.3 101680 71
2002-09-18 07:58:14 51°22.665 3°9.475 5.4 193 16.3 101680 71
2002-09-18 07:58:17 51°22.667 3°9.476 5.1 196 16.3 101680 71
2002-09-18 07:58:22 51°22.669 3°9.479 4.8 194 16.3 101680 71
2002-09-18 07:58:29 51°22.673 3°9.483 4.4 190 16.3 101690 71
2002-09-18 07:58:33 51°22.675 3°9.485 5 188 16.3 101690 71
2002-09-18 07:58:38 51°22.678 3°9.487 4.7 190 16.3 101680 71
2002-09-18 07:58:42 51°22.68 3°9.489 4.7 192 16.3 101680 71
2002-09-18 07:58:49 51°22.683 3°9.493 5.1 194 16.3 101680 72
2002-09-18 07:58:53 51°22.685 3°9.494 4.8 191 16.3 101680 72
2002-09-18 07:58:58 51°22.687 3°9.497 4.5 193 16.3 101680 72
2002-09-18 07:59:04 51°22.69 3°9.499 4.7 195 16.3 101680 72
2002-09-18 07:59:09 51°22.692 3°9.501 4.4 191 16.3 101680 71
2002-09-18 07:59:13 51°22.694 3°9.503 4.1 189 16.3 101680 71
2002-09-18 07:59:19 51°22.696 3°9.505 4.4 192 16.3 101690 70
2002-09-18 07:59:23 51°22.698 3°9.506 4.6 192 16.3 101690 70
2002-09-18 07:59:29 51°22.7 3°9.509 4.3 191 16.3 101680 71
2002-09-18 07:59:33 51°22.701 3°9.51 4.2 184 16.3 101680 71
2002-09-18 07:59:37 51°22.703 3°9.512 4.8 181 16.3 101690 71
2002-09-18 07:59:42 51°22.704 3°9.513 5 176 16.3 101690 71
2002-09-18 07:59:49 51°22.707 3°9.516 5.1 175 16.3 101680 71
2002-09-18 07:59:53 51°22.708 3°9.517 4.5 173 16.3 101680 71
2002-09-18 07:59:59 51°22.71 3°9.518 4.9 177 16.3 101690 71
2002-09-18 08:00:02 51°22.711 3°9.519 5.1 172 16.3 101690 71
2002-09-18 08:00:09 51°22.713 3°9.521 4.7 173 16.3 101680 71
2002-09-18 08:00:13 51°22.714 3°9.521 4.9 177 16.3 101680 71
2002-09-18 08:00:19 51°22.715 3°9.522 5.3 174 16.2 101690 70
2002-09-18 08:00:22 51°22.716 3°9.523 4.9 177 16.2 101690 70
2002-09-18 08:00:29 51°22.718 3°9.524 4.5 178 16.2 101680 70
2002-09-18 08:00:33 51°22.718 3°9.525 4.6 179 16.2 101680 70
2002-09-18 08:00:38 51°22.719 3°9.525 4.6 183 16.2 101690 70
2002-09-18 08:00:44 51°22.721 3°9.526 3.6 182 16.2 101690 70
2002-09-18 08:00:49 51°22.722 3°9.527 3.6 182 16.2 101690 69
2002-09-18 08:00:53 51°22.722 3°9.528 3.3 182 16.2 101690 69
2002-09-18 08:00:58 51°22.724 3°9.528 3.7 179 16.2 101690 70
2002-09-18 08:01:04 51°22.725 3°9.529 4.3 178 16.2 101690 70
2002-09-18 08:01:09 51°22.725 3°9.53 4.6 172 16.2 101690 70
2002-09-18 08:01:14 51°22.726 3°9.53 4.8 182 16.2 101690 70
2002-09-18 08:01:19 51°22.727 3°9.531 4.9 173 16.2 101690 70
2002-09-18 08:01:24 51°22.728 3°9.531 4.8 173 16.2 101690 70
2002-09-18 08:01:29 51°22.729 3°9.532 4.3 171 16.3 101690 71
2002-09-18 08:01:34 51°22.73 3°9.532 4.7 169 16.3 101690 71
2002-09-18 08:01:38 51°22.731 3°9.533 4.3 166 16.3 101690 70
2002-09-18 08:01:44 51°22.732 3°9.533 3.7 162 16.3 101690 70
2002-09-18 08:01:49 51°22.733 3°9.533 3.6 160 16.3 101690 70
2002-09-18 08:01:54 51°22.734 3°9.533 3.5 153 16.3 101690 70
2002-09-18 08:01:58 51°22.735 3°9.533 3.8 155 16.3 101690 70
2002-09-18 08:02:04 51°22.736 3°9.533 3.5 154 16.3 101690 70
2002-09-18 08:02:09 51°22.737 3°9.534 3.7 152 16.2 101700 70
2002-09-18 08:02:13 51°22.738 3°9.534 3.6 149 16.2 101700 70
2002-09-18 08:02:19 51°22.739 3°9.534 3.3 156 16.2 101700 70
2002-09-18 08:02:23 51°22.74 3°9.533 3.4 141 16.2 101700 70
2002-09-18 08:02:29 51°22.741 3°9.533 3 149 16.2 101690 70
2002-09-18 08:02:34 51°22.742 3°9.533 3.5 153 16.2 101690 70
2002-09-18 08:02:38 51°22.743 3°9.533 3.5 155 16.2 101710 69
2002-09-18 08:02:44 51°22.744 3°9.532 3.2 144 16.2 101710 69
2002-09-18 08:02:49 51°22.745 3°9.532 3.9 138 16.2 101700 70
2002-09-18 08:02:54 51°22.746 3°9.531 3.8 143 16.2 101700 70
2002-09-18 08:02:58 51°22.747 3°9.531 4.1 144 16.2 101700 70
2002-09-18 08:03:04 51°22.748 3°9.53 4.2 136 16.2 101700 70
2002-09-18 08:03:08 51°22.748 3°9.53 4 133 16.3 101700 71
2002-09-18 08:03:13 51°22.749 3°9.529 3.7 130 16.3 101700 71
2002-09-18 08:03:19 51°22.75 3°9.528 4 117 16.3 101700 71
2002-09-18 08:03:24 51°22.751 3°9.527 3.9 124 16.3 101700 71
2002-09-18 08:03:29 51°22.751 3°9.525 3.6 126 16.3 101700 71
2002-09-18 08:03:34 51°22.752 3°9.524 3.4 120 16.3 101700 71
2002-09-18 08:03:38 51°22.753 3°9.523 2.9 122 16.3 101700 70
2002-09-18 08:03:44 51°22.754 3°9.522 2.8 118 16.3 101700 70
2002-09-18 08:03:49 51°22.754 3°9.52 3.3 118 16.3 101700 70
2002-09-18 08:03:54 51°22.755 3°9.519 3.3 115 16.3 101700 70
2002-09-18 08:03:58 51°22.755 3°9.517 3.2 120 16.3 101700 70
2002-09-18 08:04:04 51°22.756 3°9.515 3.5 106 16.3 101700 70
2002-09-18 08:04:08 51°22.757 3°9.514 3.8 109 16.3 101700 70
2002-09-18 08:04:13 51°22.757 3°9.512 3.4 116 16.3 101700 70
2002-09-18 08:04:18 51°22.758 3°9.51 3.8 108 16.3 101700 70
2002-09-18 08:04:24 51°22.758 3°9.508 3.7 104 16.3 101700 70
2002-09-18 08:04:29 51°22.759 3°9.506 3.7 104 16.3 101700 70
2002-09-18 08:04:34 51°22.759 3°9.504 2.9 104 16.3 101700 70
2002-09-18 08:04:38 51°22.759 3°9.503 3.5 97 16.3 101710 70
2002-09-18 08:04:44 51°22.76 3°9.501 2.8 91 16.3 101710 70
2002-09-18 08:04:49 51°22.76 3°9.498 3.2 91 16.3 101700 70
2002-09-18 08:04:54 51°22.76 3°9.496 3.2 87 16.3 101700 70
2002-09-18 08:04:58 51°22.761 3°9.495 3 82 16.3 101700 70
2002-09-18 08:05:04 51°22.761 3°9.492 3.2 78 16.3 101700 70
2002-09-18 08:05:09 51°22.761 3°9.49 3.4 77 16.3 101700 70
2002-09-18 08:05:14 51°22.761 3°9.488 3.1 76 16.3 101700 70
2002-09-18 08:05:19 51°22.761 3°9.485 2.8 74 16.3 101710 70
2002-09-18 08:05:24 51°22.761 3°9.483 3.1 75 16.3 101710 70
2002-09-18 08:05:29 51°22.761 3°9.481 2.8 78 16.3 101700 70
2002-09-18 08:05:34 51°22.761 3°9.478 2.6 63 16.3 101700 70
2002-09-18 08:05:38 51°22.761 3°9.476 2.7 62 16.3 101700 70
2002-09-18 08:05:44 51°22.761 3°9.473 3.5 63 16.3 101700 70
2002-09-18 08:05:49 51°22.76 3°9.472 3.3 60 16.3 101700 70
2002-09-18 08:05:54 51°22.76 3°9.469 3.6 62 16.3 101700 70
2002-09-18 08:05:58 51°22.76 3°9.467 3 52 16.3 101700 70
2002-09-18 08:06:02 51°22.76 3°9.464 2.9 62 16.3 101700 70
2002-09-18 08:06:09 51°22.759 3°9.46 2.9 66 16.3 101710 70
2002-09-18 08:06:14 51°22.759 3°9.458 2.8 52 16.3 101710 70
2002-09-18 08:06:17 51°22.758 3°9.457 2.9 52 16.3 101710 70
2002-09-18 08:06:24 51°22.758 3°9.453 3.6 39 16.3 101710 70
2002-09-18 08:06:29 51°22.757 3°9.451 3.9 42 16.3 101710 71
2002-09-18 08:06:34 51°22.757 3°9.449 3.6 38 16.3 101710 71
2002-09-18 08:06:38 51°22.756 3°9.447 4.1 43 16.4 101700 72
2002-09-18 08:06:44 51°22.756 3°9.444 4.2 43 16.4 101700 72
2002-09-18 08:06:48 51°22.755 3°9.442 4.4 38 16.4 101700 72
2002-09-18 08:06:54 51°22.754 3°9.44 4.3 34 16.4 101700 72
2002-09-18 08:06:57 51°22.754 3°9.438 4.1 41 16.4 101700 71
2002-09-18 08:07:04 51°22.753 3°9.435 4.1 40 16.4 101700 71
2002-09-18 08:07:09 51°22.752 3°9.433 4.1 29 16.4 101700 69
2002-09-18 08:07:14 51°22.751 3°9.431 4.2 34 16.4 101700 69
2002-09-18 08:07:19 51°22.75 3°9.429 4 34 16.3 101710 69
2002-09-18 08:07:24 51°22.75 3°9.426 3.9 30 16.3 101710 69
2002-09-18 08:07:29 51°22.749 3°9.424 3.6 30 16.3 101700 68
2002-09-18 08:07:34 51°22.748 3°9.422 3.8 38 16.3 101700 68
2002-09-18 08:07:38 51°22.748 3°9.42 4.3 26 16.3 101700 68
2002-09-18 08:07:44 51°22.747 3°9.417 4.1 23 16.3 101700 68
2002-09-18 08:07:49 51°22.746 3°9.415 4.2 21 16.3 101700 68
2002-09-18 08:07:54 51°22.745 3°9.413 4 28 16.3 101700 68
2002-09-18 08:07:58 51°22.744 3°9.411 4.2 20 16.3 101710 68
2002-09-18 08:08:04 51°22.743 3°9.409 4.6 21 16.3 101710 68
2002-09-18 08:08:08 51°22.742 3°9.407 4.4 25 16.3 101700 68
2002-09-18 08:08:13 51°22.741 3°9.405 4.5 29 16.3 101700 68
2002-09-18 08:08:19 51°22.74 3°9.403 4.2 25 16.3 101700 68
2002-09-18 08:08:24 51°22.739 3°9.401 4.2 31 16.3 101700 68
2002-09-18 08:08:29 51°22.739 3°9.399 5 23 16.3 101700 68
2002-09-18 08:08:34 51°22.738 3°9.398 4.8 21 16.3 101700 68
2002-09-18 08:08:36 51°22.738 3°9.398 4.5 25 16.3 101700 68
2002-09-18 08:08:45 51°22.736 3°9.396 4.8 27 16.3 101700 68
2002-09-18 08:08:50 51°22.736 3°9.395 5 18 16.4 101700 68
2002-09-18 08:08:55 51°22.735 3°9.394 4.2 26 16.4 101700 68
2002-09-18 08:09:00 51°22.734 3°9.393 4.5 31 16.3 101700 68
2002-09-18 08:09:05 51°22.734 3°9.393 4.3 24 16.3 101700 68
2002-09-18 08:09:10 51°22.733 3°9.392 4.7 25 16.3 101700 68
2002-09-18 08:09:14 51°22.732 3°9.391 4.9 25 16.3 101700 68